createdAt,value
2018-03-06T00:00:21.113Z,3.64
2018-03-06T00:01:33.704Z,3.58
2018-03-06T00:02:45.956Z,3.66
2018-03-06T00:03:56.126Z,3.72
2018-03-06T00:05:06.052Z,3.64
2018-03-06T00:06:15.991Z,3.64
2018-03-06T00:07:26.178Z,3.66
2018-03-06T00:08:37.308Z,3.66
2018-03-06T00:09:48.587Z,3.72
2018-03-06T00:11:02.171Z,3.69
2018-03-06T00:12:14.510Z,3.71
2018-03-06T00:13:24.386Z,3.71
2018-03-06T00:14:34.261Z,3.66
2018-03-06T00:15:44.116Z,3.72
2018-03-06T00:16:54.516Z,3.69
2018-03-06T00:18:04.410Z,3.74
2018-03-06T00:19:16.523Z,3.71
2018-03-06T00:20:28.499Z,3.76
2018-03-06T00:21:40.084Z,3.78
2018-03-06T00:22:50.331Z,3.76
2018-03-06T00:24:00.518Z,3.76
2018-03-06T00:25:10.640Z,3.78
2018-03-06T00:26:22.693Z,3.85
2018-03-06T00:27:35.308Z,3.72
2018-03-06T00:28:46.566Z,3.85
2018-03-06T00:29:56.740Z,3.82
2018-03-06T00:31:06.629Z,3.84
2018-03-06T00:32:16.505Z,3.76
2018-03-06T00:33:26.650Z,3.89
2018-03-06T00:34:37.246Z,3.93
2018-03-06T00:35:49.036Z,3.82
2018-03-06T00:37:01.972Z,3.89
2018-03-06T00:38:14.441Z,3.93
2018-03-06T00:39:25.955Z,3.9
2018-03-06T00:40:36.117Z,3.94
2018-03-06T00:41:46.287Z,3.96
2018-03-06T00:42:57.858Z,3.9
2018-03-06T00:44:09.334Z,3.96
2018-03-06T00:45:21.538Z,4.04
2018-03-06T00:46:31.393Z,4.02
2018-03-06T00:47:41.278Z,4.07
2018-03-06T00:48:51.154Z,4.07
2018-03-06T00:50:02.469Z,4.02
2018-03-06T00:51:15.447Z,4.11
2018-03-06T00:52:27.789Z,4.1
2018-03-06T00:53:37.951Z,4.1
2018-03-06T00:54:48.109Z,4.11
2018-03-06T00:55:58.241Z,4.1
2018-03-06T00:57:09.868Z,4.18
2018-03-06T00:58:22.999Z,4.22
2018-03-06T00:59:35.617Z,4.18
2018-03-06T01:00:46.173Z,4.18
2018-03-06T01:01:56.329Z,4.18
2018-03-06T01:03:06.508Z,4.15
2018-03-06T01:04:17.428Z,4.12
2018-03-06T01:05:29.324Z,4.17
2018-03-06T01:06:42.456Z,4.18
2018-03-06T01:07:54.960Z,4.22
2018-03-06T01:09:04.860Z,4.17
2018-03-06T01:10:15.012Z,4.17
2018-03-06T01:11:25.195Z,4.14
2018-03-06T01:12:35.098Z,4.21
2018-03-06T01:13:46.698Z,4.22
2018-03-06T01:14:59.453Z,4.28
2018-03-06T01:16:11.688Z,4.24
2018-03-06T01:17:21.879Z,4.32
2018-03-06T01:18:32.048Z,4.14
2018-03-06T01:19:42.220Z,4.21
2018-03-06T01:20:52.104Z,4.32
2018-03-06T01:22:04.071Z,4.42
2018-03-06T01:23:15.506Z,4.28
2018-03-06T01:24:27.108Z,4.24
2018-03-06T01:25:39.862Z,4.3
2018-03-06T01:26:49.713Z,4.28
2018-03-06T01:27:59.575Z,4.33
2018-03-06T01:29:10.246Z,4.24
2018-03-06T01:30:22.239Z,4.24
2018-03-06T01:31:34.863Z,4.18
2018-03-06T01:32:45.823Z,4.2
2018-03-06T01:33:55.983Z,4.24
2018-03-06T01:35:06.134Z,4.14
2018-03-06T01:36:18.018Z,4.38
2018-03-06T01:37:30.443Z,4.22
2018-03-06T01:38:42.884Z,4.38
2018-03-06T01:39:53.067Z,4.32
2018-03-06T01:41:03.220Z,4.32
2018-03-06T01:42:13.405Z,4.33
2018-03-06T01:43:24.897Z,4.32
2018-03-06T01:44:37.459Z,4.42
2018-03-06T01:45:49.992Z,4.38
2018-03-06T01:47:00.131Z,4.44
2018-03-06T01:48:10.281Z,4.51
2018-03-06T01:49:21.520Z,4.48
2018-03-06T01:50:33.074Z,4.36
2018-03-06T01:51:45.880Z,4.48
2018-03-06T01:52:57.471Z,4.47
2018-03-06T01:54:07.374Z,4.39
2018-03-06T01:55:17.256Z,4.36
2018-03-06T01:56:28.217Z,4.42
2018-03-06T01:57:39.450Z,4.42
2018-03-06T01:58:52.181Z,4.36
2018-03-06T02:00:04.839Z,4.39
2018-03-06T02:01:14.709Z,4.36
2018-03-06T02:02:24.599Z,4.47
2018-03-06T02:03:34.751Z,4.47
2018-03-06T02:04:46.506Z,4.51
2018-03-06T02:05:59.999Z,4.53
2018-03-06T02:07:11.356Z,4.53
2018-03-06T02:08:21.746Z,4.48
2018-03-06T02:09:31.640Z,4.51
2018-03-06T02:10:41.953Z,4.54
2018-03-06T02:11:52.801Z,4.53
2018-03-06T02:13:02.424Z,4.53
2018-03-06T02:14:15.965Z,4.44
2018-03-06T02:15:27.561Z,4.53
2018-03-06T02:16:37.153Z,4.53
2018-03-06T02:17:47.263Z,4.47
2018-03-06T02:18:57.430Z,4.48
2018-03-06T02:20:07.643Z,4.51
2018-03-06T02:21:18.769Z,4.54
2018-03-06T02:22:30.562Z,4.56
2018-03-06T02:23:42.798Z,4.65
2018-03-06T02:24:55.489Z,4.53
2018-03-06T02:26:05.662Z,4.53
2018-03-06T02:27:15.839Z,4.5
2018-03-06T02:28:26.017Z,4.48
2018-03-06T02:29:36.996Z,4.56
2018-03-06T02:30:47.210Z,4.47
2018-03-06T02:31:59.514Z,4.56
2018-03-06T02:33:09.647Z,4.56
2018-03-06T02:34:19.255Z,4.58
2018-03-06T02:35:29.119Z,4.58
2018-03-06T02:36:39.033Z,4.56
2018-03-06T02:37:50.271Z,4.53
2018-03-06T02:39:01.729Z,4.56
2018-03-06T02:40:13.313Z,4.53
2018-03-06T02:41:25.120Z,4.53
2018-03-06T02:42:35.032Z,4.48
2018-03-06T02:43:44.973Z,4.54
2018-03-06T02:44:55.841Z,4.57
2018-03-06T02:46:07.046Z,4.57
2018-03-06T02:47:19.434Z,4.56
2018-03-06T02:48:31.420Z,4.6
2018-03-06T02:49:41.627Z,4.48
2018-03-06T02:50:51.755Z,4.57
2018-03-06T02:52:01.324Z,4.53
2018-03-06T02:53:12.428Z,4.51
2018-03-06T02:54:23.707Z,4.5
2018-03-06T02:55:36.317Z,4.46
2018-03-06T02:56:47.824Z,4.6
2018-03-06T02:57:57.977Z,4.44
2018-03-06T02:59:08.145Z,4.33
2018-03-06T03:00:17.749Z,4.47
2018-03-06T03:01:29.429Z,4.36
2018-03-06T03:02:40.905Z,4.39
2018-03-06T03:03:54.294Z,4.46
2018-03-06T03:05:05.717Z,4.3
2018-03-06T03:06:15.850Z,4.42
2018-03-06T03:07:26.079Z,4.53
2018-03-06T03:39:45.490Z,1.82
2018-03-06T03:40:57.570Z,1.78
2018-03-06T03:42:10.086Z,1.66
2018-03-06T03:43:22.453Z,1.78
2018-03-06T03:44:32.315Z,1.72
2018-03-06T03:45:42.552Z,1.84
2018-03-06T03:46:53.768Z,2.08
2018-03-06T03:48:05.319Z,2.22
2018-03-06T03:49:17.803Z,2.3
2018-03-06T03:50:28.664Z,2.48
2018-03-06T03:51:38.781Z,2.59
2018-03-06T03:52:48.632Z,2.72
2018-03-06T03:54:00.418Z,2.81
2018-03-06T03:55:12.931Z,2.98
2018-03-06T03:56:25.375Z,3.19
2018-03-06T03:57:36.206Z,3.26
2018-03-06T03:58:46.096Z,3.37
2018-03-06T03:59:55.955Z,3.56
2018-03-06T04:01:06.596Z,3.56
2018-03-06T04:02:18.159Z,3.66
2018-03-06T04:03:30.718Z,3.72
2018-03-06T04:04:42.257Z,3.75
2018-03-06T04:05:52.924Z,3.89
2018-03-06T04:07:04.583Z,3.85
2018-03-06T04:08:16.630Z,4.02
2018-03-06T04:09:26.581Z,3.97
2018-03-06T04:10:37.554Z,4.1
2018-03-06T04:11:47.678Z,4.12
2018-03-06T04:12:59.096Z,4.18
2018-03-06T04:14:10.974Z,4.21
2018-03-06T04:15:22.241Z,4.26
2018-03-06T04:16:33.204Z,4.29
2018-03-06T04:17:43.364Z,4.22
2018-03-06T04:18:53.043Z,4.21
2018-03-06T04:20:04.652Z,4.15
2018-03-06T04:21:17.775Z,4.35
2018-03-06T04:22:30.391Z,4.35
2018-03-06T04:23:40.518Z,4.36
2018-03-06T04:24:50.692Z,4.39
2018-03-06T04:26:00.814Z,4.3
2018-03-06T04:27:12.313Z,4.32
2018-03-06T04:28:24.998Z,4.44
2018-03-06T04:29:37.267Z,4.48
2018-03-06T04:30:48.056Z,4.35
2018-03-06T04:31:58.198Z,4.38
2018-03-06T04:33:07.774Z,4.39
2018-03-06T04:34:18.505Z,4.39
2018-03-06T04:35:30.422Z,4.46
2018-03-06T04:36:43.337Z,4.4
2018-03-06T04:37:53.526Z,4.36
2018-03-06T04:39:03.428Z,4.39
2018-03-06T04:40:13.566Z,4.56
2018-03-06T04:41:25.333Z,4.39
2018-03-06T04:42:38.070Z,4.38
2018-03-06T04:43:50.396Z,4.35
2018-03-06T04:45:01.100Z,4.38
2018-03-06T04:46:11.260Z,4.54
2018-03-06T04:47:21.294Z,4.56
2018-03-06T04:48:31.988Z,4.51
2018-03-06T04:49:43.285Z,4.51
2018-03-06T04:50:56.290Z,4.58
2018-03-06T04:52:08.644Z,4.53
2018-03-06T04:53:18.774Z,4.56
2018-03-06T04:54:28.955Z,4.56
2018-03-06T04:55:38.791Z,4.57
2018-03-06T04:56:48.939Z,4.53
2018-03-06T04:58:00.321Z,4.54
2018-03-06T04:59:13.696Z,4.53
2018-03-06T05:00:25.565Z,4.6
2018-03-06T05:01:36.237Z,4.65
2018-03-06T05:02:46.558Z,4.68
2018-03-06T05:03:56.445Z,4.71
2018-03-06T05:05:06.315Z,4.71
2018-03-06T05:06:17.772Z,4.58
2018-03-06T05:07:29.828Z,4.65
2018-03-06T05:08:41.897Z,4.68
2018-03-06T05:09:52.745Z,4.71
2018-03-06T05:11:03.003Z,4.69
2018-03-06T05:12:12.949Z,4.74
2018-03-06T05:13:24.063Z,4.69
2018-03-06T05:14:35.743Z,4.71
2018-03-06T05:15:45.312Z,4.66
2018-03-06T05:16:55.175Z,4.57
2018-03-06T05:18:04.796Z,4.6
2018-03-06T05:19:15.577Z,4.61
2018-03-06T05:20:27.891Z,4.53
2018-03-06T05:21:40.422Z,4.53
2018-03-06T05:22:52.202Z,4.58
2018-03-06T05:24:02.376Z,4.57
2018-03-06T05:25:12.529Z,4.5
2018-03-06T05:26:22.684Z,4.53
2018-03-06T05:27:32.540Z,4.51
2018-03-06T05:28:43.764Z,4.6
2018-03-06T05:29:55.581Z,4.56
2018-03-06T05:31:08.336Z,4.48
2018-03-06T05:32:20.854Z,4.54
2018-03-06T05:33:31.981Z,4.56
2018-03-06T05:34:41.833Z,4.6
2018-03-06T05:35:51.758Z,4.56
2018-03-06T05:37:01.940Z,4.5
2018-03-06T05:38:13.630Z,4.48
2018-03-06T05:39:25.206Z,4.6
2018-03-06T05:40:37.251Z,4.6
2018-03-06T05:41:48.759Z,4.61
2018-03-06T05:42:59.852Z,4.6
2018-03-06T05:44:09.991Z,4.57
2018-03-06T05:45:19.856Z,4.6
2018-03-06T05:46:29.985Z,4.51
2018-03-06T05:47:40.171Z,4.57
2018-03-06T05:48:50.293Z,4.54
2018-03-06T05:50:03.244Z,4.47
2018-03-06T05:51:16.053Z,4.57
2018-03-06T05:52:25.912Z,4.56
2018-03-06T05:53:36.115Z,4.6
2018-03-06T05:54:46.276Z,4.57
2018-03-06T05:55:56.431Z,4.53
2018-03-06T05:57:08.411Z,4.5
2018-03-06T05:58:19.716Z,4.48
2018-03-06T05:59:32.358Z,4.5
2018-03-06T06:00:44.796Z,4.48
2018-03-06T06:01:54.697Z,4.47
2018-03-06T06:03:04.881Z,4.48
2018-03-06T06:04:15.045Z,4.57
2018-03-06T06:05:26.242Z,4.54
2018-03-06T06:06:39.184Z,4.51
2018-03-06T06:07:51.066Z,4.56
2018-03-06T06:09:01.052Z,4.47
2018-03-06T06:10:12.717Z,4.51
2018-03-06T06:11:24.111Z,4.57
2018-03-06T06:12:36.864Z,4.54
2018-03-06T06:13:47.017Z,4.57
2018-03-06T06:14:56.816Z,4.69
2018-03-06T06:16:06.897Z,4.72
2018-03-06T06:17:16.956Z,4.64
2018-03-06T06:18:26.225Z,4.75
2018-03-06T06:19:36.029Z,4.72
2018-03-06T06:20:46.078Z,4.66
2018-03-06T06:21:56.218Z,4.6
2018-03-06T06:23:06.030Z,4.66
2018-03-06T06:24:15.820Z,4.71
2018-03-06T06:25:25.927Z,4.6
2018-03-06T06:26:35.720Z,4.75
2018-03-06T06:27:45.864Z,4.65
2018-03-06T06:28:55.934Z,4.6
2018-03-06T06:30:06.006Z,4.66
2018-03-06T06:31:16.068Z,4.69
2018-03-06T06:32:26.223Z,4.72
2018-03-06T06:33:36.192Z,4.66
2018-03-06T06:34:46.249Z,4.74
2018-03-06T06:35:55.778Z,4.69
2018-03-06T06:37:05.859Z,4.76
2018-03-06T06:38:15.908Z,4.69
2018-03-06T06:39:25.702Z,4.72
2018-03-06T06:40:35.495Z,4.72
2018-03-06T06:41:45.571Z,4.76
2018-03-06T06:42:55.366Z,4.85
2018-03-06T06:44:05.165Z,4.78
2018-03-06T06:45:15.212Z,4.79
2018-03-06T06:46:25.274Z,4.79
2018-03-06T06:47:35.388Z,4.75
2018-03-06T06:48:45.459Z,4.83
2018-03-06T06:49:55.523Z,4.75
2018-03-06T06:51:05.581Z,4.84
2018-03-06T06:52:15.648Z,4.83
2018-03-06T06:53:25.690Z,4.78
2018-03-06T06:54:35.756Z,4.84
2018-03-06T06:55:45.603Z,4.88
2018-03-06T06:56:55.143Z,5.02
2018-03-06T06:58:04.944Z,4.97
2018-03-06T06:59:15.053Z,4.98
2018-03-06T07:00:25.119Z,5.06
2018-03-06T07:01:34.921Z,5.02
2018-03-06T07:02:44.725Z,5.09
2018-03-06T07:03:54.776Z,5.06
2018-03-06T07:05:04.880Z,5.13
2018-03-06T07:06:14.933Z,5.12
2018-03-06T07:07:24.726Z,5.2
2018-03-06T07:08:34.808Z,5.13
2018-03-06T07:09:44.345Z,5.16
2018-03-06T07:10:54.421Z,5.21
2018-03-06T07:12:04.479Z,5.26
2018-03-06T07:13:14.335Z,5.36
2018-03-06T07:14:24.673Z,5.39
2018-03-06T07:15:34.737Z,5.34
2018-03-06T07:16:44.788Z,5.51
2018-03-06T07:17:54.578Z,5.54
2018-03-06T07:19:04.624Z,5.54
2018-03-06T07:20:13.911Z,5.54
2018-03-06T07:21:23.954Z,5.57
2018-03-06T07:22:34.052Z,5.55
2018-03-06T07:23:44.146Z,5.66
2018-03-06T07:24:54.020Z,5.69
2018-03-06T07:26:04.145Z,5.72
2018-03-06T07:27:14.222Z,5.64
2018-03-06T07:28:24.268Z,5.72
2018-03-06T07:29:34.057Z,5.81
2018-03-06T07:30:43.901Z,5.77
2018-03-06T07:31:53.446Z,5.78
2018-03-06T07:33:02.990Z,5.89
2018-03-06T07:34:12.582Z,5.92
2018-03-06T07:35:22.668Z,6.05
2018-03-06T07:36:32.730Z,6.05
2018-03-06T07:37:42.793Z,6.17
2018-03-06T07:38:52.327Z,6.2
2018-03-06T07:40:02.436Z,6.33
2018-03-06T07:41:12.497Z,6.4
2018-03-06T07:42:22.570Z,6.42
2018-03-06T07:43:32.635Z,6.36
2018-03-06T07:44:42.164Z,6.4
2018-03-06T07:45:52.010Z,6.36
2018-03-06T07:47:01.522Z,6.33
2018-03-06T07:48:11.354Z,6.31
2018-03-06T07:49:21.410Z,6.36
2018-03-06T07:50:31.221Z,6.37
2018-03-06T07:51:41.072Z,6.33
2018-03-06T07:52:51.124Z,6.33
2018-03-06T07:54:00.652Z,6.34
2018-03-06T07:55:10.763Z,6.33
2018-03-06T07:56:20.578Z,6.42
2018-03-06T07:57:30.627Z,6.36
2018-03-06T07:58:40.170Z,6.43
2018-03-06T07:59:50.221Z,6.31
2018-03-06T08:01:00.274Z,6.34
2018-03-06T08:02:10.342Z,6.28
2018-03-06T08:03:19.955Z,6.25
2018-03-06T08:04:29.815Z,6.28
2018-03-06T08:05:39.619Z,6.17
2018-03-06T08:06:49.420Z,6.1
2018-03-06T08:07:59.488Z,6.07
2018-03-06T08:09:09.298Z,6.18
2018-03-06T08:10:19.375Z,6.09
2018-03-06T08:11:29.164Z,6.21
2018-03-06T08:12:39.228Z,6.1
2018-03-06T08:13:49.288Z,6.15
2018-03-06T08:14:59.085Z,6.1
2018-03-06T08:16:09.156Z,6.14
2018-03-06T08:17:19.206Z,6.15
2018-03-06T08:18:29.005Z,6.14
2018-03-06T08:19:38.793Z,6.21
2018-03-06T08:20:48.857Z,6.15
2018-03-06T08:21:58.658Z,6.1
2018-03-06T08:23:08.512Z,6.15
2018-03-06T08:24:18.585Z,6.26
2018-03-06T08:25:28.684Z,6.26
2018-03-06T08:26:38.739Z,6.28
2018-03-06T08:27:48.805Z,6.28
2018-03-06T08:28:58.600Z,6.34
2018-03-06T08:30:08.399Z,6.33
2018-03-06T08:31:18.480Z,6.49
2018-03-06T08:32:28.564Z,6.44
2018-03-06T08:33:38.355Z,6.54
2018-03-06T08:34:48.413Z,6.64
2018-03-06T08:35:58.209Z,6.6
2018-03-06T08:37:08.271Z,6.61
2018-03-06T08:38:18.353Z,6.64
2018-03-06T08:39:28.422Z,6.73
2018-03-06T08:40:38.502Z,6.7
2018-03-06T08:41:48.305Z,6.7
2018-03-06T08:42:58.162Z,6.67
2018-03-06T08:44:08.231Z,6.61
2018-03-06T08:45:17.775Z,6.76
2018-03-06T08:46:27.562Z,6.68
2018-03-06T08:47:37.622Z,6.68
2018-03-06T08:48:47.691Z,6.72
2018-03-06T08:49:57.741Z,6.72
2018-03-06T08:51:07.531Z,6.75
2018-03-06T08:52:17.910Z,6.75
2018-03-06T08:53:29.312Z,6.76
2018-03-06T08:54:39.381Z,6.79
2018-03-06T08:55:49.426Z,6.79
2018-03-06T08:56:59.507Z,6.85
2018-03-06T08:58:11.473Z,6.8
2018-03-06T08:59:21.536Z,6.79
2018-03-06T09:00:31.332Z,6.79
2018-03-06T09:01:41.141Z,6.76
2018-03-06T09:02:51.201Z,6.98
2018-03-06T09:04:01.260Z,7
2018-03-06T09:05:11.057Z,7.11
2018-03-06T09:06:20.893Z,7.08
2018-03-06T09:07:30.690Z,7.05
2018-03-06T09:08:40.737Z,7.15
2018-03-06T09:09:50.803Z,7.21
2018-03-06T09:11:00.859Z,7.22
2018-03-06T09:12:10.949Z,7.23
2018-03-06T09:13:21.055Z,7.18
2018-03-06T09:14:31.114Z,7.23
2018-03-06T09:15:40.924Z,7.16
2018-03-06T09:16:50.715Z,7.21
2018-03-06T09:18:00.243Z,7.3
2018-03-06T09:19:10.050Z,7.37
2018-03-06T09:20:20.116Z,7.34
2018-03-06T09:21:30.192Z,7.34
2018-03-06T09:22:40.257Z,7.44
2018-03-06T09:23:50.339Z,7.59
2018-03-06T09:25:00.159Z,7.68
2018-03-06T09:26:10.226Z,7.74
2018-03-06T09:27:20.327Z,7.74
2018-03-06T09:28:30.388Z,7.71
2018-03-06T09:29:40.224Z,7.74
2018-03-06T09:30:49.768Z,7.88
2018-03-06T09:31:59.300Z,7.99
2018-03-06T09:33:09.375Z,8.19
2018-03-06T09:34:19.178Z,8.22
2018-03-06T09:35:28.970Z,8.47
2018-03-06T09:36:38.056Z,8.61
2018-03-06T09:37:47.884Z,8.87
2018-03-06T09:38:57.929Z,9.04
2018-03-06T09:40:07.816Z,9.21
2018-03-06T09:41:18.123Z,9.34
2018-03-06T09:42:27.947Z,9.45
2018-03-06T09:43:37.622Z,9.6
2018-03-06T09:44:47.735Z,9.63
2018-03-06T09:45:58.451Z,9.67
2018-03-06T09:47:09.138Z,9.71
2018-03-06T09:48:19.616Z,9.77
2018-03-06T09:49:29.671Z,9.85
2018-03-06T09:50:39.798Z,9.89
2018-03-06T09:51:50.507Z,9.82
2018-03-06T09:53:01.414Z,9.98
2018-03-06T09:54:11.754Z,10.05
2018-03-06T09:55:22.246Z,10.11
2018-03-06T09:56:32.093Z,10.15
2018-03-06T09:57:42.162Z,10.11
2018-03-06T09:58:52.241Z,9.95
2018-03-06T10:00:02.034Z,9.95
2018-03-06T10:01:12.108Z,9.81
2018-03-06T10:02:22.182Z,9.66
2018-03-06T10:03:32.248Z,9.66
2018-03-06T10:04:42.327Z,9.75
2018-03-06T10:05:52.386Z,9.82
2018-03-06T10:07:02.449Z,9.85
2018-03-06T10:08:12.563Z,9.75
2018-03-06T10:09:22.622Z,9.89
2018-03-06T10:10:32.687Z,9.88
2018-03-06T10:11:42.992Z,9.99
2018-03-06T10:12:53.069Z,9.96
2018-03-06T10:14:03.119Z,9.85
2018-03-06T10:15:13.195Z,10.08
2018-03-06T10:16:23.297Z,9.95
2018-03-06T10:17:33.363Z,9.81
2018-03-06T10:18:43.161Z,9.67
2018-03-06T10:19:52.953Z,9.55
2018-03-06T10:21:03.637Z,9.45
2018-03-06T10:22:13.685Z,9.62
2018-03-06T10:23:23.754Z,9.85
2018-03-06T10:24:33.819Z,9.98
2018-03-06T10:25:43.626Z,10.07
2018-03-06T10:26:53.438Z,10.23
2018-03-06T10:28:03.492Z,10.46
2018-03-06T10:29:13.650Z,10.66
2018-03-06T10:30:23.699Z,10.92
2018-03-06T10:31:33.776Z,11.15
2018-03-06T10:32:43.837Z,11.21
2018-03-06T10:33:53.882Z,11.34
2018-03-06T10:35:04.017Z,11.24
2018-03-06T10:36:14.080Z,11.28
2018-03-06T10:37:23.892Z,11.18
2018-03-06T10:38:33.701Z,11.03
2018-03-06T10:39:43.629Z,11.05
2018-03-06T10:40:53.743Z,10.97
2018-03-06T10:42:03.561Z,10.87
2018-03-06T10:43:13.857Z,10.77
2018-03-06T10:44:23.926Z,10.75
2018-03-06T10:45:34.057Z,10.73
2018-03-06T10:46:43.593Z,10.85
2018-03-06T10:47:53.678Z,10.87
2018-03-06T10:49:03.764Z,10.83
2018-03-06T10:50:13.567Z,10.87
2018-03-06T10:51:23.644Z,10.9
2018-03-06T10:52:33.696Z,10.55
2018-03-06T10:53:43.759Z,10.39
2018-03-06T10:54:53.566Z,10.25
2018-03-06T10:56:03.630Z,10.39
2018-03-06T10:57:13.709Z,10.29
2018-03-06T10:58:23.820Z,10.2
2018-03-06T10:59:33.766Z,9.98
2018-03-06T11:00:43.820Z,9.88
2018-03-06T11:01:53.886Z,9.6
2018-03-06T11:03:03.963Z,9.6
2018-03-06T11:04:14.029Z,9.53
2018-03-06T11:05:23.837Z,9.52
2018-03-06T11:06:33.943Z,9.39
2018-03-06T11:07:44.017Z,9.42
2018-03-06T11:08:53.610Z,9.41
2018-03-06T11:10:03.658Z,9.37
2018-03-06T11:11:13.739Z,9.19
2018-03-06T11:12:23.275Z,9.16
2018-03-06T11:13:33.351Z,9.17
2018-03-06T11:14:43.418Z,9.01
2018-03-06T11:15:53.490Z,8.83
2018-03-06T11:17:03.548Z,8.68
2018-03-06T11:18:12.815Z,8.58
2018-03-06T11:19:22.610Z,8.46
2018-03-06T11:20:32.746Z,8.52
2018-03-06T11:21:42.805Z,8.54
2018-03-06T11:22:52.864Z,8.57
2018-03-06T11:24:02.670Z,8.53
2018-03-06T11:25:12.745Z,8.64
2018-03-06T11:26:22.574Z,8.49
2018-03-06T11:27:32.645Z,8.39
2018-03-06T11:28:42.704Z,8.21
2018-03-06T11:29:52.782Z,8.14
2018-03-06T11:31:02.909Z,7.96
2018-03-06T11:32:13.046Z,7.78
2018-03-06T11:33:22.589Z,7.77
2018-03-06T11:34:32.130Z,7.63
2018-03-06T11:35:42.202Z,7.63
2018-03-06T11:36:52.258Z,7.56
2018-03-06T11:38:01.577Z,7.67
2018-03-06T11:39:11.383Z,7.68
2018-03-06T11:40:20.923Z,7.75
2018-03-06T11:41:30.980Z,7.85
2018-03-06T11:42:40.775Z,8.07
2018-03-06T11:43:50.843Z,8.16
2018-03-06T11:45:00.379Z,8.32
2018-03-06T11:46:10.455Z,8.16
2018-03-06T11:47:20.530Z,8.14
2018-03-06T11:48:30.616Z,8.14
2018-03-06T11:49:39.879Z,8.07
2018-03-06T11:50:49.988Z,8.13
2018-03-06T11:52:00.048Z,8.14
2018-03-06T11:53:09.851Z,8.29
2018-03-06T11:54:19.920Z,8.42
2018-03-06T11:55:30.046Z,8.43
2018-03-06T11:56:40.096Z,8.39
2018-03-06T11:57:49.898Z,8.44
2018-03-06T11:58:59.979Z,8.32
2018-03-06T12:00:09.826Z,8.44
2018-03-06T12:01:19.619Z,8.8
2018-03-06T12:02:29.437Z,8.92
2018-03-06T12:03:39.525Z,9.01
2018-03-06T12:04:49.907Z,9.05
2018-03-06T12:05:59.718Z,8.8
2018-03-06T12:07:09.970Z,8.72
2018-03-06T12:08:19.836Z,8.57
2018-03-06T12:09:29.917Z,8.61
2018-03-06T12:10:39.987Z,8.53
2018-03-06T12:11:49.546Z,8.49
2018-03-06T12:12:59.642Z,8.52
2018-03-06T12:14:09.438Z,8.31
2018-03-06T12:15:19.516Z,8.22
2018-03-06T12:16:29.583Z,8.1
2018-03-06T12:17:39.645Z,8.04
2018-03-06T12:18:49.770Z,7.98
2018-03-06T12:19:59.889Z,7.93
2018-03-06T12:21:10.016Z,7.8
2018-03-06T12:22:19.831Z,7.61
2018-03-06T12:23:29.646Z,7.49
2018-03-06T12:24:39.448Z,7.49
2018-03-06T12:25:49.572Z,7.39
2018-03-06T12:26:59.116Z,7.34
2018-03-06T12:28:09.204Z,7.26
2018-03-06T12:29:18.748Z,7.23
2018-03-06T12:30:28.861Z,7.33
2018-03-06T12:31:38.939Z,7.18
2018-03-06T12:32:48.999Z,7.3
2018-03-06T12:33:58.813Z,7.19
2018-03-06T12:35:08.623Z,7.23
2018-03-06T12:36:18.691Z,7.27
2018-03-06T12:37:28.775Z,7.22
2018-03-06T12:38:38.870Z,7.23
2018-03-06T12:39:49.025Z,7.15
2018-03-06T12:40:58.836Z,7.16
2018-03-06T12:42:08.916Z,7.13
2018-03-06T12:43:18.733Z,7.16
2018-03-06T12:44:28.526Z,7.15
2018-03-06T12:45:38.626Z,7.15
2018-03-06T12:46:48.694Z,7
2018-03-06T12:47:58.756Z,6.88
2018-03-06T12:49:08.812Z,6.9
2018-03-06T12:50:18.893Z,6.82
2018-03-06T12:51:29.048Z,6.79
2018-03-06T12:52:39.121Z,6.62
2018-03-06T12:53:49.198Z,6.52
2018-03-06T12:54:59.174Z,6.58
2018-03-06T12:56:09.340Z,6.55
2018-03-06T12:57:19.393Z,6.54
2018-03-06T12:58:29.198Z,6.54
2018-03-06T12:59:39.026Z,6.52
2018-03-06T13:00:49.090Z,6.47
2018-03-06T13:01:59.180Z,6.49
2018-03-06T13:03:09.532Z,6.57
2018-03-06T13:04:19.355Z,6.57
2018-03-06T13:05:29.444Z,6.62
2018-03-06T13:06:39.523Z,6.64
2018-03-06T13:07:49.630Z,6.64
2018-03-06T13:08:59.193Z,6.64
2018-03-06T13:10:09.313Z,6.51
2018-03-06T13:11:19.143Z,6.62
2018-03-06T13:12:29.245Z,6.72
2018-03-06T13:13:39.099Z,6.65
2018-03-06T13:14:48.927Z,6.67
2018-03-06T13:15:58.995Z,6.67
2018-03-06T13:17:09.102Z,6.68
2018-03-06T13:18:19.173Z,6.58
2018-03-06T13:19:29.246Z,6.67
2018-03-06T13:20:39.071Z,6.7
2018-03-06T13:21:49.136Z,6.76
2018-03-06T13:22:59.204Z,6.75
2018-03-06T13:24:09.292Z,6.68
2018-03-06T13:25:19.382Z,6.68
2018-03-06T13:26:29.456Z,6.7
2018-03-06T13:27:39.537Z,6.67
2018-03-06T13:28:49.614Z,6.64
2018-03-06T13:29:59.439Z,6.72
2018-03-06T13:31:09.520Z,6.68
2018-03-06T13:32:19.659Z,6.68
2018-03-06T13:33:29.213Z,6.75
2018-03-06T13:34:39.285Z,6.68
2018-03-06T13:35:49.609Z,6.73
2018-03-06T13:36:59.786Z,6.75
2018-03-06T13:38:09.380Z,6.62
2018-03-06T13:39:19.184Z,6.65
2018-03-06T13:40:29.249Z,6.73
2018-03-06T13:41:39.086Z,6.73
2018-03-06T13:42:49.175Z,6.78
2018-03-06T13:43:59.236Z,6.8
2018-03-06T13:45:09.365Z,6.78
2018-03-06T13:46:19.425Z,6.85
2018-03-06T13:47:29.485Z,6.8
2018-03-06T13:48:39.552Z,6.95
2018-03-06T13:49:49.609Z,6.95
2018-03-06T13:50:59.676Z,7.04
2018-03-06T13:52:09.766Z,7.01
2018-03-06T13:53:19.964Z,7.05
2018-03-06T13:54:30.056Z,7.12
2018-03-06T13:55:40.184Z,7.15
2018-03-06T13:56:50.254Z,7.19
2018-03-06T13:57:59.810Z,7.16
2018-03-06T13:59:09.366Z,7.13
2018-03-06T14:00:19.187Z,7.22
2018-03-06T14:01:29.336Z,7.13
2018-03-06T14:02:39.137Z,7.16
2018-03-06T14:03:49.193Z,7.12
2018-03-06T14:04:58.510Z,7.15
2018-03-06T14:06:08.575Z,7.12
2018-03-06T14:07:18.662Z,7.18
2018-03-06T14:08:28.478Z,7.13
2018-03-06T14:09:38.569Z,7.21
2018-03-06T14:10:48.647Z,7.11
2018-03-06T14:11:58.483Z,7.12
2018-03-06T14:13:08.666Z,7.08
2018-03-06T14:14:18.481Z,7.05
2018-03-06T14:15:27.564Z,7.04
2018-03-06T14:16:37.743Z,7.05
2018-03-06T14:17:47.575Z,7.15
2018-03-06T14:18:57.684Z,7.16
2018-03-06T14:20:07.496Z,7.16
2018-03-06T14:21:17.587Z,7.01
2018-03-06T14:22:27.666Z,7
2018-03-06T14:23:37.479Z,7.11
2018-03-06T14:24:47.629Z,6.95
2018-03-06T14:25:57.184Z,7
2018-03-06T14:27:07.024Z,7.09
2018-03-06T14:28:17.109Z,7.03
2018-03-06T14:29:27.224Z,6.95
2018-03-06T14:30:37.061Z,7.16
2018-03-06T14:31:47.142Z,7.11
2018-03-06T14:32:56.974Z,7.09
2018-03-06T14:34:06.788Z,7.05
2018-03-06T14:35:16.350Z,7.08
2018-03-06T14:36:26.171Z,7.01
2018-03-06T14:37:36.300Z,6.97
2018-03-06T14:38:46.087Z,7
2018-03-06T14:39:55.639Z,7.05
2018-03-06T14:41:05.730Z,6.95
2018-03-06T14:42:15.803Z,6.98
2018-03-06T14:43:25.709Z,7
2018-03-06T14:44:35.823Z,7.04
2018-03-06T14:45:45.622Z,6.97
2018-03-06T14:46:55.450Z,7
2018-03-06T14:48:04.999Z,6.85
2018-03-06T14:49:14.594Z,6.79
2018-03-06T14:50:24.142Z,6.75
2018-03-06T14:51:34.234Z,6.76
2018-03-06T14:52:44.489Z,6.8
2018-03-06T14:53:54.570Z,7.01
2018-03-06T14:55:04.736Z,6.97
2018-03-06T14:56:14.866Z,7.03
2018-03-06T14:57:25.012Z,6.94
2018-03-06T14:58:35.094Z,7.01
2018-03-06T14:59:45.174Z,6.95
2018-03-06T15:00:55.299Z,7.01
2018-03-06T15:02:05.406Z,6.93
2018-03-06T15:03:15.521Z,6.93
2018-03-06T15:04:25.646Z,6.94
2018-03-06T15:05:35.756Z,6.91
2018-03-06T15:06:45.882Z,6.97
2018-03-06T15:07:55.691Z,7
2018-03-06T15:09:05.759Z,7
2018-03-06T15:10:15.831Z,7.01
2018-03-06T15:11:25.362Z,7
2018-03-06T15:12:35.440Z,7.04
2018-03-06T15:13:45.253Z,7.04
2018-03-06T15:14:55.078Z,7.09
2018-03-06T15:16:04.874Z,7.09
2018-03-06T15:17:14.680Z,7.19
2018-03-06T15:18:24.743Z,7.09
2018-03-06T15:19:34.296Z,7.09
2018-03-06T15:20:44.106Z,7.05
2018-03-06T15:21:53.631Z,7.09
2018-03-06T15:23:03.705Z,7.16
2018-03-06T15:24:13.536Z,7.16
2018-03-06T15:25:23.645Z,7.16
2018-03-06T15:26:33.726Z,7.09
2018-03-06T15:27:43.818Z,7.11
2018-03-06T15:28:53.630Z,7.04
2018-03-06T15:30:03.703Z,7.01
2018-03-06T15:31:13.815Z,6.95
2018-03-06T15:32:23.917Z,6.98
2018-03-06T15:33:34.004Z,6.97
2018-03-06T15:34:44.078Z,7.03
2018-03-06T15:35:54.201Z,7
2018-03-06T15:37:04.006Z,6.94
2018-03-06T15:38:14.087Z,7.04
2018-03-06T15:39:24.162Z,6.98
2018-03-06T15:40:34.245Z,6.95
2018-03-06T15:41:44.398Z,7.01
2018-03-06T15:42:54.231Z,6.91
2018-03-06T15:44:04.332Z,7.03
2018-03-06T15:45:14.403Z,6.91
2018-03-06T15:46:24.480Z,6.82
2018-03-06T15:47:34.627Z,6.86
2018-03-06T15:48:44.709Z,6.85
2018-03-06T15:49:54.818Z,6.9
2018-03-06T15:51:04.928Z,6.85
2018-03-06T15:52:15.034Z,6.82
2018-03-06T15:53:24.909Z,6.86
2018-03-06T15:54:35.219Z,6.8
2018-03-06T15:55:45.305Z,6.85
2018-03-06T15:56:55.374Z,6.9
2018-03-06T15:58:05.522Z,6.93
2018-03-06T15:59:15.651Z,6.93
2018-03-06T16:00:25.523Z,6.91
2018-03-06T16:01:35.612Z,6.8
2018-03-06T16:02:45.726Z,6.93
2018-03-06T16:03:55.291Z,6.86
2018-03-06T16:05:05.374Z,6.76
2018-03-06T16:06:15.229Z,6.83
2018-03-06T16:07:25.305Z,6.85
2018-03-06T16:08:35.412Z,6.85
2018-03-06T16:09:45.239Z,6.91